createdAt,value
2022-11-24T00:01:16.692Z,66.90
2022-11-24T00:03:46.641Z,64.40
2022-11-24T00:06:16.351Z,62.20
2022-11-24T00:08:46.536Z,65.20
2022-11-24T00:11:20.413Z,67.50
2022-11-24T00:13:49.466Z,69.70
2022-11-24T00:16:20.138Z,71.20
2022-11-24T00:18:50.320Z,72.80
2022-11-24T00:21:20.278Z,72.50
2022-11-24T00:23:49.393Z,66.20
2022-11-24T00:26:23.073Z,63.30
2022-11-24T00:28:53.124Z,63.10
2022-11-24T00:31:29.266Z,66.40
2022-11-24T00:34:01.164Z,68.70
2022-11-24T00:36:32.500Z,70.50
2022-11-24T00:39:02.860Z,71.80
2022-11-24T00:41:31.840Z,73.20
2022-11-24T00:44:00.747Z,69.70
2022-11-24T00:46:29.608Z,65.90
2022-11-24T00:48:58.675Z,62.90
2022-11-24T00:51:28.109Z,64.20
2022-11-24T00:53:56.933Z,67.20
2022-11-24T00:56:25.378Z,69.40
2022-11-24T00:58:53.263Z,71.00
2022-11-24T01:01:23.825Z,72.50
2022-11-24T01:03:52.854Z,74.00
2022-11-24T01:06:23.553Z,69.50
2022-11-24T01:08:52.171Z,66.20
2022-11-24T01:11:22.172Z,62.80
2022-11-24T01:13:55.941Z,64.60
2022-11-24T01:16:31.189Z,67.50
2022-11-24T01:18:59.467Z,69.90
2022-11-24T01:21:27.855Z,71.60
2022-11-24T01:23:56.105Z,73.00
2022-11-24T01:26:24.459Z,74.30
2022-11-24T01:28:56.927Z,70.20
2022-11-24T01:31:26.606Z,65.80
2022-11-24T01:33:55.114Z,63.80
2022-11-24T01:36:23.573Z,65.70
2022-11-24T01:38:52.671Z,68.20
2022-11-24T01:41:25.495Z,70.10
2022-11-24T01:43:55.512Z,71.80
2022-11-24T01:46:59.190Z,73.20
2022-11-24T01:49:55.329Z,75.10
2022-11-24T01:52:30.850Z,67.40
2022-11-24T01:55:09.285Z,65.20
2022-11-24T01:57:45.041Z,64.40
2022-11-24T02:00:14.838Z,67.60
2022-11-24T02:02:44.907Z,69.60
2022-11-24T02:05:23.883Z,71.50
2022-11-24T02:07:54.495Z,73.10
2022-11-24T02:10:23.509Z,74.30
2022-11-24T02:12:54.147Z,69.70
2022-11-24T02:15:23.143Z,66.20
2022-11-24T02:17:51.372Z,63.60
2022-11-24T02:20:19.618Z,66.20
2022-11-24T02:23:12.302Z,68.80
2022-11-24T02:26:03.651Z,70.80
2022-11-24T02:28:32.532Z,72.20
2022-11-24T02:31:01.504Z,74.10
2022-11-24T02:33:30.780Z,75.30
2022-11-24T02:35:58.913Z,68.70
2022-11-24T02:38:31.484Z,65.70
2022-11-24T02:41:03.216Z,63.60
2022-11-24T02:43:38.829Z,66.80
2022-11-24T02:46:06.984Z,69.20
2022-11-24T02:48:35.232Z,71.10
2022-11-24T02:51:03.775Z,72.60
2022-11-24T02:53:32.265Z,73.90
2022-11-24T02:56:00.484Z,75.50
2022-11-24T02:58:28.618Z,69.90
2022-11-24T03:00:56.761Z,66.40
2022-11-24T03:03:25.856Z,64.00
2022-11-24T03:05:54.565Z,66.90
2022-11-24T03:08:22.822Z,69.30
2022-11-24T03:10:51.095Z,70.90
2022-11-24T03:13:19.194Z,72.50
2022-11-24T03:15:47.684Z,73.70
2022-11-24T03:18:15.922Z,75.30
2022-11-24T03:20:44.078Z,71.20
2022-11-24T03:23:12.266Z,67.20
2022-11-24T03:25:40.394Z,64.40
2022-11-24T03:28:08.660Z,66.80
2022-11-24T03:30:36.804Z,69.30
2022-11-24T03:33:05.071Z,71.10
2022-11-24T03:35:33.164Z,72.80
2022-11-24T03:38:01.467Z,74.20
2022-11-24T03:40:29.750Z,75.30
2022-11-24T03:42:57.904Z,74.70
2022-11-24T03:48:15.612Z,65.80
2022-11-24T03:50:44.587Z,66.40
2022-11-24T03:53:12.755Z,69.30
2022-11-24T03:55:40.858Z,71.30
2022-11-24T03:58:09.115Z,72.20
2022-11-24T04:00:37.150Z,74.10
2022-11-24T04:03:05.416Z,75.60
2022-11-24T04:05:33.525Z,76.40
2022-11-24T04:08:01.741Z,69.20
2022-11-24T04:10:30.947Z,66.60
2022-11-24T04:12:59.070Z,65.70
2022-11-24T04:15:27.091Z,68.80
2022-11-24T04:17:56.805Z,70.90
2022-11-24T04:20:25.037Z,72.50
2022-11-24T04:22:53.256Z,74.10
2022-11-24T04:25:21.246Z,75.50
2022-11-24T04:27:53.020Z,76.30
2022-11-24T04:30:22.559Z,69.70
2022-11-24T04:32:51.025Z,67.00
2022-11-24T04:35:20.311Z,65.90
2022-11-24T04:37:48.525Z,69.20
2022-11-24T04:40:17.112Z,71.50
2022-11-24T04:42:44.970Z,72.90
2022-11-24T04:45:13.086Z,74.30
2022-11-24T04:47:41.197Z,75.50
2022-11-24T04:50:10.030Z,77.00
2022-11-24T04:52:38.177Z,71.00
2022-11-24T04:55:06.674Z,67.40
2022-11-24T04:57:34.815Z,66.00
2022-11-24T05:00:03.164Z,69.40
2022-11-24T05:02:31.294Z,71.60
2022-11-24T05:04:59.413Z,73.20
2022-11-24T05:07:27.661Z,74.70
2022-11-24T05:09:59.662Z,76.00
2022-11-24T05:12:29.094Z,77.20
2022-11-24T05:15:01.109Z,71.90
2022-11-24T05:17:39.874Z,68.10
2022-11-24T05:20:08.536Z,65.80
2022-11-24T05:22:36.603Z,69.50
2022-11-24T05:25:05.161Z,71.50
2022-11-24T05:27:33.041Z,73.00
2022-11-24T05:30:01.277Z,74.60
2022-11-24T05:32:29.512Z,75.80
2022-11-24T05:34:57.702Z,76.80
2022-11-24T05:37:25.999Z,77.40
2022-11-24T05:39:54.347Z,69.80
2022-11-24T05:42:22.524Z,67.60
2022-11-24T05:44:50.859Z,66.60
2022-11-24T05:47:19.611Z,69.60
2022-11-24T05:49:47.787Z,71.70
2022-11-24T05:52:16.852Z,73.30
2022-11-24T05:54:44.971Z,74.80
2022-11-24T05:57:13.222Z,75.90
2022-11-24T05:59:41.519Z,76.80
2022-11-24T06:02:09.996Z,76.20
2022-11-24T06:04:38.645Z,70.10
2022-11-24T06:07:10.072Z,66.80
2022-11-24T06:09:39.761Z,68.10
2022-11-24T06:12:09.244Z,71.10
2022-11-24T06:14:37.751Z,72.60
2022-11-24T06:17:06.223Z,74.30
2022-11-24T06:19:37.442Z,75.50
2022-11-24T06:22:09.759Z,76.60
2022-11-24T06:24:38.045Z,77.80
2022-11-24T06:27:06.072Z,71.50
2022-11-24T06:29:34.276Z,68.30
2022-11-24T06:32:02.444Z,67.70
2022-11-24T06:34:30.648Z,70.60
2022-11-24T06:36:59.244Z,72.70
2022-11-24T06:39:27.518Z,74.30
2022-11-24T06:41:55.705Z,75.60
2022-11-24T06:44:23.882Z,76.30
2022-11-24T06:46:52.033Z,77.70
2022-11-24T06:49:20.263Z,78.70
2022-11-24T06:51:48.450Z,71.70
2022-11-24T06:54:18.960Z,68.60
2022-11-24T06:56:47.294Z,68.30
2022-11-24T06:59:20.538Z,71.10
2022-11-24T07:01:48.817Z,73.10
2022-11-24T07:04:17.011Z,74.60
2022-11-24T07:06:45.829Z,75.80
2022-11-24T07:09:14.250Z,76.80
2022-11-24T07:11:42.253Z,77.40
2022-11-24T07:14:10.879Z,73.20
2022-11-24T07:16:39.488Z,68.70
2022-11-24T07:19:07.216Z,66.60
2022-11-24T07:21:35.537Z,69.80
2022-11-24T07:24:03.770Z,71.90
2022-11-24T07:26:31.793Z,73.50
2022-11-24T07:29:00.174Z,75.00
2022-11-24T07:31:28.414Z,76.30
2022-11-24T07:33:56.690Z,77.20
2022-11-24T07:36:25.117Z,78.40
2022-11-24T07:38:53.420Z,74.00
2022-11-24T07:41:21.866Z,69.90
2022-11-24T07:43:50.523Z,67.40
2022-11-24T07:46:20.221Z,70.70
2022-11-24T07:48:48.754Z,72.90
2022-11-24T07:51:17.107Z,74.20
2022-11-24T07:53:46.765Z,75.40
2022-11-24T07:56:14.912Z,76.70
2022-11-24T07:58:45.066Z,78.20
2022-11-24T08:01:19.002Z,79.00
2022-11-24T08:03:47.956Z,72.10
2022-11-24T08:06:27.360Z,68.80
2022-11-24T08:08:59.392Z,68.80
2022-11-24T08:11:28.102Z,71.90
2022-11-24T08:13:55.942Z,73.70
2022-11-24T08:16:24.220Z,75.30
2022-11-24T08:18:54.715Z,76.00
2022-11-24T08:21:23.950Z,77.80
2022-11-24T08:23:56.253Z,79.10
2022-11-24T08:26:25.354Z,75.10
2022-11-24T08:28:56.362Z,70.10
2022-11-24T08:31:25.872Z,67.80
2022-11-24T08:33:56.749Z,71.00
2022-11-24T08:36:25.130Z,73.40
2022-11-24T08:39:00.880Z,75.00
2022-11-24T08:41:30.111Z,76.20
2022-11-24T08:43:58.435Z,77.70
2022-11-24T08:46:26.951Z,78.90
2022-11-24T08:48:55.576Z,76.20
2022-11-24T08:51:24.885Z,71.10
2022-11-24T08:54:01.395Z,68.70
2022-11-24T08:56:32.117Z,70.60
2022-11-24T08:59:01.074Z,73.10
2022-11-24T09:01:30.425Z,74.60
2022-11-24T09:03:59.031Z,75.90
2022-11-24T09:06:28.785Z,77.60
2022-11-24T09:08:58.014Z,78.70
2022-11-24T09:11:27.767Z,78.30
2022-11-24T09:13:56.497Z,72.30
2022-11-24T09:16:26.106Z,69.30
2022-11-24T09:19:03.338Z,70.60
2022-11-24T09:21:33.343Z,73.80
2022-11-24T09:24:01.566Z,75.20
2022-11-24T09:26:32.048Z,76.70
2022-11-24T09:29:01.860Z,78.20
2022-11-24T09:31:36.278Z,79.20
2022-11-24T09:34:07.216Z,74.40
2022-11-24T09:36:36.278Z,70.40
2022-11-24T09:39:05.313Z,68.40
2022-11-24T09:41:55.143Z,71.50
2022-11-24T09:44:42.912Z,74.00
2022-11-24T09:47:37.034Z,75.70
2022-11-24T09:50:16.847Z,77.30
2022-11-24T09:52:49.152Z,78.70
2022-11-24T09:55:24.776Z,76.20
2022-11-24T09:58:15.681Z,71.00
2022-11-24T10:00:44.086Z,68.40
2022-11-24T10:03:19.767Z,71.50
2022-11-24T10:05:51.653Z,73.50
2022-11-24T10:08:28.473Z,75.20
2022-11-24T10:11:02.535Z,76.40
2022-11-24T10:14:07.039Z,78.40
2022-11-24T10:16:57.436Z,79.10
2022-11-24T10:20:07.328Z,72.70
2022-11-24T10:22:44.884Z,68.50
2022-11-24T10:25:17.567Z,70.30
2022-11-24T10:27:55.671Z,73.00
2022-11-24T10:30:25.237Z,74.80
2022-11-24T10:33:18.112Z,76.10
2022-11-24T10:36:09.595Z,77.60
2022-11-24T10:38:53.443Z,79.00
2022-11-24T10:41:40.072Z,74.30
2022-11-24T10:44:15.540Z,70.70
2022-11-24T10:46:44.337Z,68.10
2022-11-24T10:49:28.299Z,71.40
2022-11-24T10:52:05.532Z,73.60
2022-11-24T10:54:34.450Z,75.30
2022-11-24T10:57:03.449Z,76.50
2022-11-24T10:59:38.717Z,77.90
2022-11-24T11:02:36.825Z,78.80
2022-11-24T11:05:53.567Z,71.80
2022-11-24T11:08:30.309Z,68.20
2022-11-24T11:11:19.639Z,69.90
2022-11-24T11:14:04.413Z,72.60
2022-11-24T11:16:56.710Z,74.50
2022-11-24T11:19:53.153Z,75.80
2022-11-24T11:22:36.748Z,77.40
2022-11-24T11:25:10.886Z,78.50
2022-11-24T11:27:40.889Z,71.90
2022-11-24T11:36:16.216Z,71.70
2022-11-24T11:38:45.824Z,73.80
2022-11-24T11:41:30.754Z,75.00
2022-11-24T11:44:24.246Z,76.60
2022-11-24T11:46:54.707Z,78.10
2022-11-24T11:49:23.144Z,71.90
2022-11-24T11:52:08.544Z,69.00
2022-11-24T11:55:05.319Z,66.60
2022-11-24T11:57:52.966Z,70.50
2022-11-24T12:00:22.340Z,72.60
2022-11-24T12:03:00.069Z,74.50
2022-11-24T12:05:36.134Z,76.00
2022-11-24T12:08:20.982Z,77.40
2022-11-24T12:10:55.995Z,71.80
2022-11-24T12:13:48.628Z,68.70
2022-11-24T12:16:29.851Z,66.80
2022-11-24T12:19:34.422Z,70.30
2022-11-24T12:22:29.880Z,72.80
2022-11-24T12:25:26.940Z,74.70
2022-11-24T12:28:18.888Z,76.50
2022-11-24T12:31:18.820Z,72.60
2022-11-24T12:34:12.777Z,68.60
2022-11-24T12:37:14.570Z,65.80
2022-11-24T12:39:48.978Z,69.30
2022-11-24T12:42:23.354Z,71.80
2022-11-24T12:45:10.205Z,73.50
2022-11-24T12:47:53.675Z,75.00
2022-11-24T12:50:27.240Z,76.70
2022-11-24T12:53:04.490Z,71.10
2022-11-24T12:55:34.342Z,67.60
2022-11-24T12:58:18.677Z,65.50
2022-11-24T13:01:05.353Z,68.70
2022-11-24T13:03:42.368Z,71.10
2022-11-24T13:06:38.130Z,72.90
2022-11-24T13:09:11.483Z,74.20
2022-11-24T13:11:43.035Z,76.10
2022-11-24T13:14:19.132Z,70.20
2022-11-24T13:19:47.584Z,64.90
2022-11-24T13:22:23.840Z,67.70
2022-11-24T13:25:17.826Z,70.20
2022-11-24T13:27:49.270Z,72.30
2022-11-24T13:30:35.739Z,74.20
2022-11-24T13:33:16.568Z,75.50
2022-11-24T13:36:11.275Z,71.40
2022-11-24T13:38:53.197Z,67.80
2022-11-24T13:41:36.597Z,65.20
2022-11-24T13:44:16.685Z,67.20
2022-11-24T13:47:06.902Z,70.00
2022-11-24T13:49:39.412Z,72.10
2022-11-24T13:52:43.418Z,73.80
2022-11-24T13:55:14.529Z,74.60
2022-11-24T13:57:52.568Z,68.60
2022-11-24T14:00:24.969Z,65.90
2022-11-24T14:03:01.936Z,63.70
2022-11-24T14:05:46.711Z,67.20
2022-11-24T14:08:26.179Z,69.50
2022-11-24T14:10:57.190Z,71.50
2022-11-24T14:13:32.670Z,73.00
2022-11-24T14:16:05.573Z,74.10
2022-11-24T14:18:35.663Z,68.30
2022-11-24T14:21:23.534Z,65.40
2022-11-24T14:23:59.318Z,63.80
2022-11-24T14:26:34.740Z,67.00
2022-11-24T14:29:19.250Z,69.50
2022-11-24T14:31:59.041Z,71.40
2022-11-24T14:34:30.135Z,73.00
2022-11-24T14:37:01.085Z,69.80
2022-11-24T14:39:40.730Z,66.50
2022-11-24T14:42:17.791Z,64.00
2022-11-24T14:44:53.363Z,63.70
2022-11-24T14:47:37.777Z,67.10
2022-11-24T14:50:14.185Z,69.40
2022-11-24T14:53:13.952Z,71.20
2022-11-24T14:55:42.167Z,73.10
2022-11-24T14:58:36.486Z,68.10
2022-11-24T15:01:32.289Z,65.20
2022-11-24T15:07:27.779Z,65.20
2022-11-24T15:09:58.865Z,68.20
2022-11-24T15:12:33.283Z,70.20
2022-11-24T15:15:19.029Z,71.90
2022-11-24T15:18:06.319Z,69.00
2022-11-24T15:20:40.705Z,65.40
2022-11-24T15:23:21.251Z,62.30
2022-11-24T15:25:55.986Z,62.50
2022-11-24T15:28:25.372Z,65.90
2022-11-24T15:31:10.254Z,68.30
2022-11-24T15:33:39.492Z,70.40
2022-11-24T15:36:08.504Z,72.20
2022-11-24T15:38:36.730Z,69.40
2022-11-24T15:41:21.461Z,65.90
2022-11-24T15:43:49.992Z,64.20
2022-11-24T15:46:18.288Z,61.40
2022-11-24T15:48:46.730Z,64.80
2022-11-24T15:51:15.239Z,67.30
2022-11-24T15:54:01.170Z,69.40
2022-11-24T15:56:34.268Z,71.30
2022-11-24T15:59:03.278Z,68.30
2022-11-24T16:01:33.421Z,64.60
2022-11-24T16:04:02.634Z,62.10
2022-11-24T16:06:31.556Z,60.90
2022-11-24T16:08:59.865Z,64.20
2022-11-24T16:11:28.272Z,66.80
2022-11-24T16:13:56.680Z,69.70
2022-11-24T16:16:25.632Z,70.80
2022-11-24T16:18:54.012Z,70.30
2022-11-24T16:21:22.231Z,65.20
2022-11-24T16:23:50.592Z,63.00
2022-11-24T16:26:18.831Z,60.50
2022-11-24T16:28:47.056Z,63.60
2022-11-24T16:31:15.555Z,66.70
2022-11-24T16:33:45.429Z,68.30
2022-11-24T16:36:14.789Z,70.10
2022-11-24T16:38:43.021Z,70.30
2022-11-24T16:41:11.612Z,65.20
2022-11-24T16:43:40.097Z,62.70
2022-11-24T16:46:22.217Z,60.00
2022-11-24T16:48:52.689Z,60.20
2022-11-24T16:51:22.785Z,63.70
2022-11-24T16:54:02.431Z,66.30
2022-11-24T16:56:31.822Z,68.80
2022-11-24T16:58:59.935Z,69.90
2022-11-24T17:01:28.347Z,64.50
2022-11-24T17:03:56.837Z,61.90
2022-11-24T17:06:25.271Z,59.40
2022-11-24T17:08:55.765Z,61.00
2022-11-24T17:11:26.717Z,64.50
2022-11-24T17:13:56.506Z,66.60
2022-11-24T17:16:26.565Z,68.70
2022-11-24T17:18:55.015Z,70.30
2022-11-24T17:21:25.026Z,65.60
2022-11-24T17:23:57.900Z,62.80
2022-11-24T17:26:26.897Z,60.10
2022-11-24T17:28:55.987Z,60.60
2022-11-24T17:31:32.601Z,63.70
2022-11-24T17:34:01.858Z,66.40
2022-11-24T17:36:31.616Z,68.50
2022-11-24T17:39:04.831Z,70.10
2022-11-24T17:41:34.059Z,65.40
2022-11-24T17:44:02.185Z,63.00
2022-11-24T17:46:31.675Z,59.90
2022-11-24T17:48:59.943Z,59.70
2022-11-24T17:51:28.462Z,63.00
2022-11-24T17:56:59.926Z,66.90
2022-11-24T17:59:28.378Z,68.60
2022-11-24T18:01:56.702Z,65.80
2022-11-24T18:04:24.969Z,62.60
2022-11-24T18:06:53.281Z,60.10
2022-11-24T18:09:21.512Z,58.50
2022-11-24T18:11:49.705Z,61.90
2022-11-24T18:14:18.244Z,64.40
2022-11-24T18:16:46.520Z,66.80
2022-11-24T18:19:14.779Z,68.70
2022-11-24T18:21:43.678Z,70.20
2022-11-24T18:24:13.380Z,64.40
2022-11-24T18:26:43.234Z,61.60
2022-11-24T18:29:12.015Z,59.50
2022-11-24T18:31:40.698Z,60.50
2022-11-24T18:34:09.296Z,63.50
2022-11-24T18:36:37.547Z,65.50
2022-11-24T18:39:07.679Z,67.40
2022-11-24T18:41:36.892Z,69.40
2022-11-24T18:44:05.021Z,66.00
2022-11-24T18:46:33.201Z,62.40
2022-11-24T18:49:01.359Z,60.10
2022-11-24T18:51:29.699Z,58.60
2022-11-24T18:53:58.169Z,61.90
2022-11-24T18:56:27.384Z,64.50
2022-11-24T18:58:57.162Z,66.40
2022-11-24T19:01:28.170Z,68.10
2022-11-24T19:03:58.969Z,69.80
2022-11-24T19:06:35.652Z,64.70
2022-11-24T19:09:24.324Z,62.10
2022-11-24T19:11:52.668Z,59.50
2022-11-24T19:14:20.977Z,60.20
2022-11-24T19:16:49.257Z,63.30
2022-11-24T19:19:17.953Z,65.40
2022-11-24T19:21:46.231Z,67.20
2022-11-24T19:24:38.279Z,68.80
2022-11-24T19:27:06.230Z,70.30
2022-11-24T19:29:37.876Z,67.20
2022-11-24T19:32:09.326Z,63.40
2022-11-24T19:34:37.377Z,60.80
2022-11-24T19:37:05.998Z,59.40
2022-11-24T19:39:34.232Z,62.10
2022-11-24T19:42:02.633Z,64.60
2022-11-24T19:44:30.910Z,66.70
2022-11-24T19:46:59.111Z,68.70
2022-11-24T19:49:27.272Z,70.30
2022-11-24T19:51:55.627Z,67.40
2022-11-24T19:54:23.968Z,63.30
2022-11-24T19:56:54.072Z,60.80
2022-11-24T19:59:22.559Z,60.80
2022-11-24T20:01:50.928Z,64.00
2022-11-24T20:04:19.190Z,66.40
2022-11-24T20:06:48.268Z,68.30
2022-11-24T20:09:18.706Z,70.10
2022-11-24T20:11:47.665Z,68.50
2022-11-24T20:14:17.506Z,64.20
2022-11-24T20:16:45.809Z,61.50
2022-11-24T20:19:15.715Z,59.60
2022-11-24T20:21:44.993Z,63.10
2022-11-24T20:24:19.966Z,65.50
2022-11-24T20:26:51.966Z,67.80
2022-11-24T20:29:20.771Z,69.50
2022-11-24T20:31:53.101Z,70.00
2022-11-24T20:34:22.167Z,64.70
2022-11-24T20:36:50.805Z,61.90
2022-11-24T20:39:25.117Z,60.00
2022-11-24T20:41:55.083Z,63.40
2022-11-24T20:44:24.781Z,66.00
2022-11-24T20:46:55.882Z,68.20
2022-11-24T20:49:24.359Z,70.30
2022-11-24T20:51:52.924Z,70.30
2022-11-24T20:54:21.941Z,65.00
2022-11-24T20:56:50.580Z,62.40
2022-11-24T20:59:21.801Z,60.40
2022-11-24T21:01:52.103Z,63.30
2022-11-24T21:04:24.107Z,65.80
2022-11-24T21:06:52.609Z,67.60
2022-11-24T21:09:21.012Z,69.60
2022-11-24T21:11:49.449Z,69.10
2022-11-24T21:14:17.602Z,64.60
2022-11-24T21:16:45.799Z,61.60
2022-11-24T21:19:16.242Z,59.70
2022-11-24T21:21:44.841Z,62.70
2022-11-24T21:24:15.792Z,65.60
2022-11-24T21:26:45.857Z,67.90
2022-11-24T21:29:16.358Z,69.80
2022-11-24T21:31:44.629Z,71.40
2022-11-24T21:34:16.698Z,65.90
2022-11-24T21:36:45.448Z,62.90
2022-11-24T21:39:14.414Z,60.40
2022-11-24T21:41:43.722Z,61.30
2022-11-24T21:44:13.244Z,64.70
2022-11-24T21:46:48.264Z,66.80
2022-11-24T21:49:20.922Z,68.80
2022-11-24T21:51:49.285Z,70.70
2022-11-24T21:54:17.638Z,71.20
2022-11-24T21:56:46.102Z,65.50
2022-11-24T21:59:14.312Z,62.70
2022-11-24T22:01:42.717Z,60.10
2022-11-24T22:04:11.307Z,62.90
2022-11-24T22:06:39.385Z,65.60
2022-11-24T22:09:07.682Z,67.90
2022-11-24T22:11:35.984Z,69.70
2022-11-24T22:14:04.283Z,71.40
2022-11-24T22:16:32.798Z,66.90
2022-11-24T22:19:01.245Z,64.10
2022-11-24T22:21:29.469Z,61.30
2022-11-24T22:23:58.128Z,61.70
2022-11-24T22:26:28.177Z,64.80
2022-11-24T22:28:57.637Z,67.20
2022-11-24T22:31:31.279Z,69.00
2022-11-24T22:34:01.065Z,71.00
2022-11-24T22:36:30.566Z,68.40
2022-11-24T22:39:04.200Z,64.40
2022-11-24T22:41:34.227Z,61.40
2022-11-24T22:44:03.098Z,61.60
2022-11-24T22:46:32.399Z,65.20
2022-11-24T22:49:01.914Z,67.60
2022-11-24T22:51:33.567Z,69.50
2022-11-24T22:54:04.072Z,71.30
2022-11-24T22:56:33.453Z,71.80
2022-11-24T22:59:03.016Z,65.60
2022-11-24T23:01:32.833Z,62.80
2022-11-24T23:04:01.288Z,61.20
2022-11-24T23:06:32.076Z,64.50
2022-11-24T23:09:01.633Z,67.10
2022-11-24T23:11:37.432Z,68.90
2022-11-24T23:14:14.741Z,70.70
2022-11-24T23:16:44.237Z,69.90
2022-11-24T23:19:12.644Z,65.10
2022-11-24T23:21:40.923Z,62.50
2022-11-24T23:24:10.734Z,61.00
2022-11-24T23:26:41.035Z,63.80
2022-11-24T23:29:10.672Z,66.40
2022-11-24T23:31:38.962Z,68.40
2022-11-24T23:34:07.840Z,70.20
2022-11-24T23:36:35.619Z,71.90
2022-11-24T23:39:09.430Z,67.20
2022-11-24T23:41:37.805Z,63.40
2022-11-24T23:44:06.029Z,61.30
2022-11-24T23:46:34.726Z,62.10
2022-11-24T23:49:02.781Z,64.50
2022-11-24T23:51:33.040Z,67.00
2022-11-24T23:54:01.742Z,68.70
2022-11-24T23:56:31.307Z,70.20
2022-11-24T23:59:01.180Z,71.70
